createdAt,value
2022-12-25T00:03:54.844Z,10.48
2022-12-25T00:07:57.327Z,10.48
2022-12-25T00:11:59.644Z,10.45
2022-12-25T00:16:10.137Z,10.54
2022-12-25T00:20:12.407Z,10.54
2022-12-25T00:24:14.939Z,10.55
2022-12-25T00:28:17.121Z,10.50
2022-12-25T00:32:19.360Z,10.56
2022-12-25T00:36:22.847Z,10.70
2022-12-25T00:40:25.048Z,10.65
2022-12-25T00:44:27.335Z,10.76
2022-12-25T00:48:30.366Z,10.88
2022-12-25T00:52:33.949Z,10.89
2022-12-25T00:56:39.109Z,10.94
2022-12-25T01:00:41.484Z,11.00
2022-12-25T01:04:44.719Z,10.98
2022-12-25T01:09:08.322Z,11.01
2022-12-25T01:13:12.111Z,11.07
2022-12-25T01:17:15.171Z,11.10
2022-12-25T01:21:21.304Z,11.08
2022-12-25T01:25:27.437Z,11.05
2022-12-25T01:29:32.748Z,11.08
2022-12-25T01:33:35.926Z,11.11
2022-12-25T01:37:38.278Z,11.14
2022-12-25T01:41:48.255Z,11.17
2022-12-25T01:45:53.936Z,11.19
2022-12-25T01:49:56.678Z,11.15
2022-12-25T01:54:02.459Z,11.15
2022-12-25T01:58:05.170Z,11.15
2022-12-25T02:02:10.546Z,11.10
2022-12-25T02:06:13.827Z,10.93
2022-12-25T02:10:16.656Z,10.78
2022-12-25T02:14:19.134Z,10.81
2022-12-25T02:18:38.711Z,10.87
2022-12-25T02:23:07.379Z,10.96
2022-12-25T02:27:36.563Z,10.97
2022-12-25T02:31:50.139Z,11.04
2022-12-25T02:35:56.027Z,10.92
2022-12-25T02:40:17.433Z,10.92
2022-12-25T02:44:43.712Z,11.02
2022-12-25T02:49:09.490Z,10.97
2022-12-25T02:53:33.659Z,11.00
2022-12-25T02:58:01.151Z,11.06
2022-12-25T03:02:28.707Z,11.16
2022-12-25T03:06:46.819Z,11.09
2022-12-25T03:11:24.339Z,11.15
2022-12-25T03:15:46.530Z,11.16
2022-12-25T03:20:16.765Z,11.09
2022-12-25T03:24:41.448Z,11.11
2022-12-25T03:28:44.732Z,11.14
2022-12-25T03:33:17.993Z,11.20
2022-12-25T03:37:46.757Z,11.15
2022-12-25T03:42:17.576Z,11.13
2022-12-25T03:46:49.264Z,11.08
2022-12-25T03:51:20.662Z,11.10
2022-12-25T03:55:45.254Z,11.15
2022-12-25T04:00:07.050Z,11.16
2022-12-25T04:04:30.109Z,11.22
2022-12-25T04:08:50.834Z,11.26
2022-12-25T04:13:12.643Z,11.16
2022-12-25T04:17:33.427Z,10.83
2022-12-25T04:21:56.756Z,10.84
2022-12-25T04:26:18.093Z,10.90
2022-12-25T04:30:39.524Z,10.94
2022-12-25T04:35:04.207Z,10.93
2022-12-25T04:39:14.287Z,10.86
2022-12-25T04:43:16.770Z,10.73
2022-12-25T04:47:18.955Z,10.69
2022-12-25T04:51:24.753Z,10.68
2022-12-25T04:55:27.186Z,10.61
2022-12-25T04:59:29.820Z,10.16
2022-12-25T05:03:32.813Z,9.57
2022-12-25T05:07:35.182Z,9.45
2022-12-25T05:11:37.460Z,9.51
2022-12-25T05:15:40.895Z,9.56
2022-12-25T05:19:44.356Z,9.59
2022-12-25T05:23:50.916Z,9.51
2022-12-25T05:27:54.105Z,9.51
2022-12-25T05:31:56.443Z,9.47
2022-12-25T05:36:00.922Z,9.41
2022-12-25T05:40:04.165Z,9.35
2022-12-25T05:44:06.433Z,9.25
2022-12-25T05:48:10.709Z,9.17
2022-12-25T05:52:13.148Z,8.89
2022-12-25T05:56:16.053Z,8.85
2022-12-25T06:00:18.703Z,8.87
2022-12-25T06:04:21.047Z,9.02
2022-12-25T06:08:23.161Z,9.18
2022-12-25T06:12:25.354Z,9.26
2022-12-25T06:16:31.611Z,9.33
2022-12-25T06:20:40.773Z,9.50
2022-12-25T06:24:45.042Z,9.66
2022-12-25T06:28:47.480Z,9.69
2022-12-25T06:32:49.640Z,9.83
2022-12-25T06:36:51.884Z,9.86
2022-12-25T06:40:55.068Z,9.93
2022-12-25T06:44:57.636Z,9.99
2022-12-25T06:49:00.912Z,9.92
2022-12-25T06:53:03.037Z,10.01
2022-12-25T06:57:05.195Z,10.23
2022-12-25T07:01:15.968Z,10.33
2022-12-25T07:05:18.677Z,10.44
2022-12-25T07:09:20.795Z,10.56
2022-12-25T07:13:23.028Z,10.60
2022-12-25T07:17:25.368Z,10.62
2022-12-25T07:21:27.680Z,10.74
2022-12-25T07:25:35.262Z,10.86
2022-12-25T07:29:39.337Z,10.93
2022-12-25T07:33:41.970Z,11.01
2022-12-25T07:37:44.145Z,11.08
2022-12-25T07:41:46.321Z,11.19
2022-12-25T07:45:55.131Z,11.28
2022-12-25T07:49:57.688Z,11.41
2022-12-25T07:54:00.038Z,11.52
2022-12-25T07:58:02.196Z,11.64
2022-12-25T08:02:04.619Z,11.71
2022-12-25T08:06:09.693Z,11.66
2022-12-25T08:10:12.570Z,11.65
2022-12-25T08:14:15.497Z,11.79
2022-12-25T08:18:17.682Z,11.89
2022-12-25T08:22:19.751Z,11.85
2022-12-25T08:26:22.723Z,11.83
2022-12-25T08:30:24.821Z,11.88
2022-12-25T08:34:26.939Z,12.00
2022-12-25T08:38:29.119Z,12.18
2022-12-25T08:42:31.279Z,12.31
2022-12-25T08:46:33.452Z,12.39
2022-12-25T08:50:35.663Z,12.57
2022-12-25T08:54:37.893Z,12.59
2022-12-25T08:58:40.469Z,12.63
2022-12-25T09:02:42.666Z,12.75
2022-12-25T09:06:45.086Z,12.83
2022-12-25T09:10:47.707Z,12.87
2022-12-25T09:14:49.783Z,12.98
2022-12-25T09:18:52.329Z,12.96
2022-12-25T09:22:54.389Z,13.10
2022-12-25T09:26:56.441Z,13.14
2022-12-25T09:30:59.342Z,13.23
2022-12-25T09:35:02.743Z,13.22
2022-12-25T09:39:04.944Z,13.33
2022-12-25T09:43:12.493Z,13.48
2022-12-25T09:47:18.796Z,13.56
2022-12-25T09:51:21.453Z,13.63
2022-12-25T09:55:25.925Z,13.78
2022-12-25T09:59:28.123Z,13.89
2022-12-25T10:03:45.460Z,14.00
2022-12-25T10:08:07.307Z,13.59
2022-12-25T10:12:09.498Z,13.35
2022-12-25T10:16:27.114Z,13.41
2022-12-25T10:20:49.784Z,13.51
2022-12-25T10:24:54.688Z,13.26
2022-12-25T10:29:13.945Z,13.44
2022-12-25T10:33:21.798Z,13.54
2022-12-25T10:37:25.211Z,13.77
2022-12-25T10:41:58.319Z,14.13
2022-12-25T10:46:00.570Z,14.38
2022-12-25T10:50:08.964Z,14.44
2022-12-25T10:54:35.846Z,14.02
2022-12-25T10:58:37.976Z,14.17
2022-12-25T11:02:41.140Z,14.46
2022-12-25T11:06:43.454Z,14.37
2022-12-25T11:10:53.314Z,13.98
2022-12-25T11:14:59.075Z,14.11
2022-12-25T11:19:01.653Z,14.27
2022-12-25T11:23:10.772Z,14.43
2022-12-25T11:27:25.879Z,14.45
2022-12-25T11:31:39.419Z,14.45
2022-12-25T11:35:53.101Z,14.44
2022-12-25T11:39:55.426Z,14.57
2022-12-25T11:44:05.117Z,14.64
2022-12-25T11:48:23.684Z,14.68
2022-12-25T11:52:34.001Z,14.62
2022-12-25T11:56:38.060Z,14.61
2022-12-25T12:00:42.857Z,14.44
2022-12-25T12:04:50.988Z,14.34
2022-12-25T12:09:01.395Z,14.31
2022-12-25T12:13:15.742Z,14.24
2022-12-25T12:17:18.963Z,14.23
2022-12-25T12:21:25.352Z,14.02
2022-12-25T12:25:29.071Z,14.14
2022-12-25T12:29:41.149Z,14.19
2022-12-25T12:33:52.115Z,14.29
2022-12-25T12:37:59.615Z,14.31
2022-12-25T12:42:02.139Z,14.38
2022-12-25T12:46:30.910Z,14.34
2022-12-25T12:50:42.747Z,14.21
2022-12-25T12:55:02.992Z,14.17
2022-12-25T12:59:05.444Z,14.11
2022-12-25T13:03:24.164Z,14.08
2022-12-25T13:08:01.944Z,14.09
2022-12-25T13:12:08.304Z,14.08
2022-12-25T13:16:37.374Z,14.18
2022-12-25T13:20:56.658Z,14.22
2022-12-25T13:25:01.379Z,14.33
2022-12-25T13:29:11.041Z,14.35
2022-12-25T13:33:19.303Z,14.42
2022-12-25T13:37:24.659Z,14.48
2022-12-25T13:41:53.366Z,14.49
2022-12-25T13:45:56.556Z,14.47
2022-12-25T13:50:00.914Z,14.47
2022-12-25T13:54:07.380Z,14.47
2022-12-25T13:58:21.093Z,14.46
2022-12-25T14:02:30.395Z,14.42
2022-12-25T14:06:33.135Z,14.23
2022-12-25T14:10:39.351Z,14.21
2022-12-25T14:14:41.815Z,14.15
2022-12-25T14:18:59.992Z,14.16
2022-12-25T14:23:02.127Z,14.16
2022-12-25T14:27:07.272Z,14.02
2022-12-25T14:31:12.012Z,13.99
2022-12-25T14:35:19.744Z,13.83
2022-12-25T14:39:33.356Z,13.74
2022-12-25T14:43:36.501Z,13.66
2022-12-25T14:47:52.903Z,13.41
2022-12-25T14:51:55.392Z,13.21
2022-12-25T14:55:57.613Z,13.09
2022-12-25T15:00:19.730Z,12.95
2022-12-25T15:04:23.728Z,12.84
2022-12-25T15:08:26.240Z,12.68
2022-12-25T15:12:28.305Z,12.52
2022-12-25T15:16:52.189Z,12.31
2022-12-25T15:20:56.296Z,12.08
2022-12-25T15:25:02.310Z,12.00
2022-12-25T15:29:06.595Z,11.73
2022-12-25T15:33:17.267Z,11.47
2022-12-25T15:37:19.577Z,11.30
2022-12-25T15:41:55.459Z,11.42
2022-12-25T15:45:57.895Z,11.41
2022-12-25T15:50:00.061Z,11.56
2022-12-25T15:54:03.741Z,11.66
2022-12-25T15:58:05.836Z,11.63
2022-12-25T16:02:16.446Z,11.36
2022-12-25T16:06:18.984Z,11.36
2022-12-25T16:10:22.794Z,11.42
2022-12-25T16:14:24.947Z,11.60
2022-12-25T16:18:27.474Z,11.43
2022-12-25T16:22:30.785Z,11.18
2022-12-25T16:26:33.392Z,11.04
2022-12-25T16:30:35.562Z,10.97
2022-12-25T16:34:37.686Z,10.88
2022-12-25T16:38:39.763Z,10.84
2022-12-25T16:42:42.606Z,10.85
2022-12-25T16:46:44.905Z,10.82
2022-12-25T16:50:47.101Z,10.84
2022-12-25T16:54:49.241Z,10.90
2022-12-25T16:58:51.769Z,10.87
2022-12-25T17:02:54.080Z,10.91
2022-12-25T17:06:56.411Z,10.91
2022-12-25T17:10:59.479Z,10.94
2022-12-25T17:15:01.583Z,10.93
2022-12-25T17:19:08.125Z,10.96
2022-12-25T17:23:10.527Z,11.00
2022-12-25T17:27:12.643Z,11.04
2022-12-25T17:31:14.906Z,11.00
2022-12-25T17:35:17.968Z,11.01
2022-12-25T17:39:20.144Z,11.16
2022-12-25T17:43:22.699Z,11.21
2022-12-25T17:47:24.967Z,11.32
2022-12-25T17:51:29.866Z,11.40
2022-12-25T17:55:34.483Z,11.48
2022-12-25T17:59:36.612Z,11.58
2022-12-25T18:03:39.391Z,11.56
2022-12-25T18:07:41.568Z,11.60
2022-12-25T18:11:44.136Z,11.74
2022-12-25T18:15:46.399Z,11.81
2022-12-25T18:19:51.436Z,11.89
2022-12-25T18:23:53.761Z,11.94
2022-12-25T18:27:57.074Z,11.99
2022-12-25T18:31:59.211Z,12.02
2022-12-25T18:36:01.868Z,12.06
2022-12-25T18:40:05.388Z,12.06
2022-12-25T18:44:07.836Z,11.81
2022-12-25T18:48:13.616Z,11.86
2022-12-25T18:52:48.782Z,11.94
2022-12-25T18:56:37.780Z,12.01
2022-12-25T19:00:39.946Z,12.01
2022-12-25T19:04:45.484Z,12.05
2022-12-25T19:08:48.242Z,12.05
2022-12-25T19:12:50.361Z,12.05
2022-12-25T19:16:54.336Z,12.04
2022-12-25T19:20:56.544Z,12.04
2022-12-25T19:24:58.948Z,11.87
2022-12-25T19:29:01.020Z,11.78
2022-12-25T19:33:03.086Z,11.88
2022-12-25T19:37:05.213Z,11.93
2022-12-25T19:41:18.965Z,11.86
2022-12-25T19:45:21.875Z,11.90
2022-12-25T19:49:24.049Z,11.98
2022-12-25T19:53:27.411Z,12.00
2022-12-25T19:57:29.518Z,12.08
2022-12-25T20:01:31.793Z,12.06
2022-12-25T20:05:34.478Z,12.00
2022-12-25T20:09:36.770Z,11.97
2022-12-25T20:13:38.956Z,11.97
2022-12-25T20:17:41.060Z,11.91
2022-12-25T20:21:43.269Z,11.95
2022-12-25T20:25:45.583Z,11.98
2022-12-25T20:29:47.792Z,11.99
2022-12-25T20:33:50.096Z,12.03
2022-12-25T20:37:52.236Z,12.06
2022-12-25T20:41:54.387Z,12.00
2022-12-25T20:45:56.655Z,11.93
2022-12-25T20:49:59.224Z,11.92
2022-12-25T20:54:07.158Z,11.91
2022-12-25T20:58:09.370Z,11.93
2022-12-25T21:02:34.252Z,11.95
2022-12-25T21:06:36.696Z,11.99
2022-12-25T21:10:38.808Z,11.90
2022-12-25T21:14:44.026Z,11.99
2022-12-25T21:18:47.435Z,11.96
2022-12-25T21:22:49.581Z,11.92
2022-12-25T21:26:51.822Z,11.95
2022-12-25T21:30:53.983Z,11.94
2022-12-25T21:34:57.650Z,11.94
2022-12-25T21:39:06.500Z,11.57
2022-12-25T21:43:12.242Z,11.73
2022-12-25T21:47:14.649Z,11.80
2022-12-25T21:51:44.504Z,11.80
2022-12-25T21:56:02.448Z,11.79
2022-12-25T22:00:05.219Z,11.78
2022-12-25T22:04:09.150Z,11.77
2022-12-25T22:08:11.423Z,11.63
2022-12-25T22:12:34.471Z,11.55
2022-12-25T22:16:55.254Z,11.53
2022-12-25T22:20:57.428Z,11.65
2022-12-25T22:25:01.911Z,11.61
2022-12-25T22:29:04.683Z,11.71
2022-12-25T22:33:06.839Z,11.75
2022-12-25T22:37:13.577Z,11.84
2022-12-25T22:41:15.674Z,11.77
2022-12-25T22:45:17.851Z,11.64
2022-12-25T22:49:20.892Z,11.56
2022-12-25T22:53:23.066Z,11.67
2022-12-25T22:57:25.933Z,11.63
2022-12-25T23:01:28.145Z,11.35
2022-12-25T23:05:30.282Z,11.18
2022-12-25T23:09:32.543Z,11.20
2022-12-25T23:13:53.321Z,11.22
2022-12-25T23:18:14.491Z,11.42
2022-12-25T23:22:35.171Z,11.54
2022-12-25T23:26:37.397Z,11.61
2022-12-25T23:30:39.654Z,11.70
2022-12-25T23:34:43.809Z,11.72
2022-12-25T23:38:45.830Z,11.72
2022-12-25T23:42:48.805Z,11.51
2022-12-25T23:46:53.345Z,11.60
2022-12-25T23:50:56.596Z,11.74
2022-12-25T23:54:58.809Z,11.81
2022-12-25T23:59:01.053Z,11.82
